createdAt,value
2017-10-06T16:07:42.824Z,12.53
2017-10-06T16:10:10.904Z,12.57
2017-10-06T16:12:38.555Z,12.75
2017-10-06T16:15:09.838Z,12.82
2017-10-06T16:17:37.764Z,12.89
2017-10-06T16:20:06.535Z,12.97
2017-10-06T16:22:34.597Z,13.00
2017-10-06T16:25:02.200Z,13.12
2017-10-06T16:27:29.682Z,13.02
2017-10-06T16:29:57.232Z,13.05
2017-10-06T16:32:24.719Z,12.97
2017-10-06T16:34:52.945Z,12.86
2017-10-06T16:37:20.419Z,12.89
2017-10-06T16:39:47.934Z,12.92
2017-10-06T16:42:15.407Z,12.82
2017-10-06T16:44:42.901Z,12.55
2017-10-06T16:47:10.410Z,12.36
2017-10-06T16:49:37.896Z,12.20
2017-10-06T16:52:05.418Z,12.35
2017-10-06T16:54:32.895Z,12.43
2017-10-06T16:57:00.397Z,12.39
2017-10-06T16:59:28.008Z,12.19
2017-10-06T17:01:55.671Z,12.20
2017-10-06T17:04:23.255Z,12.32
2017-10-06T17:06:50.745Z,12.47
2017-10-06T17:09:19.367Z,12.37
2017-10-06T17:11:47.105Z,12.40
2017-10-06T17:14:14.622Z,12.56
2017-10-06T17:16:42.217Z,12.70
2017-10-06T17:19:09.860Z,12.62
2017-10-06T17:21:37.788Z,12.90
2017-10-06T17:24:05.332Z,13.01
2017-10-06T17:26:32.861Z,13.06
2017-10-06T17:29:00.813Z,13.08
2017-10-06T17:31:28.559Z,13.13
2017-10-06T17:33:56.346Z,13.12
2017-10-06T17:36:24.291Z,13.07
2017-10-06T17:38:51.887Z,12.97
2017-10-06T17:41:19.552Z,12.94
2017-10-06T17:43:47.139Z,12.70
2017-10-06T17:46:15.053Z,12.58
2017-10-06T17:48:42.780Z,12.55
2017-10-06T17:51:10.319Z,12.36
2017-10-06T17:53:38.225Z,12.17
2017-10-06T17:56:05.728Z,12.22
2017-10-06T17:58:33.351Z,12.17
2017-10-06T18:01:01.158Z,12.20
2017-10-06T18:03:28.756Z,12.23
2017-10-06T18:05:57.040Z,12.19
2017-10-06T18:08:25.427Z,12.17
2017-10-06T18:10:54.010Z,12.23
2017-10-06T18:13:22.117Z,12.20
2017-10-06T18:15:49.725Z,12.12
2017-10-06T18:18:17.312Z,12.09
2017-10-06T18:20:44.934Z,11.96
2017-10-06T18:23:13.407Z,12.01
2017-10-06T18:25:41.551Z,12.04
2017-10-06T18:28:09.277Z,12.02
2017-10-06T18:30:36.798Z,12.06
2017-10-06T18:33:04.323Z,11.93
2017-10-06T18:35:31.794Z,11.89
2017-10-06T18:37:59.327Z,11.82
2017-10-06T18:40:26.837Z,11.93
2017-10-06T18:42:54.672Z,11.93
2017-10-06T18:45:22.709Z,11.90
2017-10-06T18:47:50.204Z,12.07
2017-10-06T18:50:17.738Z,12.15
2017-10-06T18:52:45.324Z,12.13
2017-10-06T18:55:12.859Z,12.11
2017-10-06T18:57:40.393Z,12.36
2017-10-06T19:00:08.167Z,12.26
2017-10-06T19:02:35.862Z,12.21
2017-10-06T19:05:03.360Z,12.23
2017-10-06T19:07:30.895Z,12.23
2017-10-06T19:09:58.795Z,12.24
2017-10-06T19:12:26.311Z,12.10
2017-10-06T19:14:53.902Z,11.96
2017-10-06T19:17:21.906Z,11.80
2017-10-06T19:19:49.764Z,11.92
2017-10-06T19:22:17.370Z,11.92
2017-10-06T19:24:45.782Z,11.93
2017-10-06T19:27:13.380Z,11.81
2017-10-06T19:29:41.116Z,11.65
2017-10-06T19:32:08.761Z,11.79
2017-10-06T19:34:36.262Z,11.76
2017-10-06T19:37:03.808Z,11.54
2017-10-06T19:39:31.301Z,11.49
2017-10-06T19:41:59.139Z,11.48
2017-10-06T19:44:26.837Z,11.45
2017-10-06T19:46:54.394Z,11.49
2017-10-06T19:49:22.035Z,11.60
2017-10-06T19:51:49.778Z,11.66
2017-10-06T19:54:17.630Z,11.70
2017-10-06T19:56:46.491Z,11.57
2017-10-06T19:59:14.424Z,11.68
2017-10-06T20:01:47.308Z,11.74
2017-10-06T20:04:15.162Z,11.68
2017-10-06T20:06:43.387Z,11.73
2017-10-06T20:09:11.691Z,11.68
2017-10-06T20:11:39.388Z,11.57
2017-10-06T20:14:06.998Z,11.60
2017-10-06T20:16:34.567Z,11.73
2017-10-06T20:19:02.123Z,11.78
2017-10-06T20:21:29.696Z,11.82
2017-10-06T20:23:57.194Z,11.77
2017-10-06T20:26:24.781Z,11.71
2017-10-06T20:28:53.281Z,11.62
2017-10-06T20:31:24.160Z,11.58
2017-10-06T20:33:57.528Z,11.66
2017-10-06T20:36:26.984Z,11.57
2017-10-06T20:38:54.533Z,11.56
2017-10-06T20:41:22.775Z,11.46
2017-10-06T20:43:50.452Z,11.61
2017-10-06T20:46:18.023Z,11.64
2017-10-06T20:48:46.836Z,11.65
2017-10-06T20:51:14.401Z,11.76
2017-10-06T20:53:41.961Z,11.83
2017-10-06T20:56:13.096Z,11.81
2017-10-06T20:58:40.678Z,11.85
2017-10-06T21:01:08.347Z,12.12
2017-10-06T21:03:35.911Z,12.09
2017-10-06T21:06:03.581Z,12.02
2017-10-06T21:08:32.158Z,12.04
2017-10-06T21:10:59.717Z,11.95
2017-10-06T21:13:27.294Z,11.82
2017-10-06T21:15:54.887Z,11.89
2017-10-06T21:18:22.454Z,11.38
2017-10-06T21:20:50.907Z,11.93
2017-10-06T21:23:18.446Z,12.00
2017-10-06T21:25:46.119Z,12.03
2017-10-06T21:28:13.748Z,11.98
2017-10-06T21:30:41.374Z,11.96
2017-10-06T21:33:10.613Z,12.10
2017-10-06T21:35:38.266Z,12.16
2017-10-06T21:38:06.610Z,12.24
2017-10-06T21:40:34.196Z,12.30
2017-10-06T21:43:01.823Z,12.31
2017-10-06T21:45:29.579Z,12.25
2017-10-06T21:47:57.255Z,12.24
2017-10-06T21:50:24.796Z,12.27
2017-10-06T21:52:52.409Z,12.15
2017-10-06T21:55:20.027Z,11.99
2017-10-06T21:57:47.632Z,12.00
2017-10-06T22:00:15.345Z,11.91
2017-10-06T22:02:42.881Z,11.82
2017-10-06T22:05:10.606Z,11.89
2017-10-06T22:07:39.199Z,11.82
2017-10-06T22:10:06.899Z,11.85
2017-10-06T22:12:34.451Z,11.93
2017-10-06T22:15:01.988Z,11.85
2017-10-06T22:17:29.602Z,11.94
2017-10-06T22:19:58.372Z,12.05
2017-10-06T22:22:25.919Z,12.02
2017-10-06T22:24:53.841Z,11.93
2017-10-06T22:27:21.490Z,12.01
2017-10-06T22:29:49.047Z,12.10
2017-10-06T22:32:17.745Z,12.01
2017-10-06T22:34:45.378Z,11.85
2017-10-06T22:37:13.743Z,11.95
2017-10-06T22:39:41.314Z,11.99
2017-10-06T22:42:08.974Z,12.07
2017-10-06T22:44:37.728Z,12.11
2017-10-06T22:47:06.300Z,12.16
2017-10-06T22:49:34.473Z,12.13
2017-10-06T22:52:02.665Z,12.07
2017-10-06T22:54:30.365Z,12.01
2017-10-06T22:57:00.427Z,11.94
2017-10-06T22:59:28.073Z,11.90
2017-10-06T23:01:55.608Z,11.87
2017-10-06T23:04:23.209Z,11.85
2017-10-06T23:06:51.964Z,11.85
2017-10-06T23:09:20.213Z,11.73
2017-10-06T23:11:49.529Z,11.82
2017-10-06T23:14:17.910Z,11.68
2017-10-06T23:16:46.500Z,11.69
2017-10-06T23:19:14.100Z,11.66
2017-10-06T23:21:41.726Z,11.63
2017-10-06T23:24:10.267Z,11.62
2017-10-06T23:26:38.038Z,11.65
2017-10-06T23:29:06.566Z,11.58
2017-10-06T23:31:34.109Z,11.50
2017-10-06T23:34:01.709Z,11.37
2017-10-06T23:36:29.283Z,11.28
2017-10-06T23:38:56.883Z,11.12
2017-10-06T23:41:24.493Z,11.11
2017-10-06T23:43:52.105Z,11.10
2017-10-06T23:46:21.504Z,11.01
2017-10-06T23:48:50.197Z,10.93
2017-10-06T23:51:18.467Z,10.95
2017-10-06T23:53:46.009Z,10.95
2017-10-06T23:56:13.556Z,10.94
2017-10-06T23:58:41.934Z,11.01
